Mary Bennett — WDC4592 — position and weather

sailwx.info

Track history (hours):
 
Tides and Currents Weather Stations Pressure Air Temp Water Temp Dewpoint Dewpoint Depression Visibility Wind Speed Wind Dir Waves Ship Positions

Mary Bennett

Owner: Savannah Marine Services, Savannah, GA. More information available from US FCC via Universal Licensing System and Coast Guard Vessel Documentation Center.

Last reported at 2018-Aug-15 18:18 UTC. Time now 2018-Aug-21 04:19 UTC.
Position N 32°05' W 081°06'.

Length 21 m; draft 2.3 m.

Type: Tug. MMSI: 367027140.

Date/timePositionNaut miles runAvg speedWind from/ knotsBaromVisibWave heightAir tempDewpointWater temp
2018-Aug-15 18:18N 32°05' W 081°06'1 2.8
2018-Aug-15 18:00N 32°05' W 081°05'3 6.6
2018-Aug-15 17:30N 32°06' W 081°01'1 2.1
2018-Aug-15 17:00N 32°06' W 080°60'3 5.4
2018-Aug-15 16:30N 32°05' W 081°03'3 6.3
2018-Aug-15 16:00N 32°06' W 081°06'0 0.3
2018-Aug-15 15:30N 32°06' W 081°07'0 0.0
2018-Aug-15 15:00N 32°06' W 081°07'0 0.0
2018-Aug-15 14:30N 32°06' W 081°07'0 0.0
2018-Aug-15 14:00N 32°06' W 081°07'1 1.1
2018-Aug-15 13:31N 32°05' W 081°06'4 8.2
2018-Aug-15 12:58N 32°06' W 081°01'  
2018-Aug-10 21:08N 32°05' W 081°06'0 0.0
2018-Aug-10 21:00N 32°05' W 081°06'2 3.9
2018-Aug-10 20:30N 32°05' W 081°03'4 9.0
2018-Aug-10 20:00N 32°04' W 080°58'510.5
2018-Aug-10 19:30N 32°02' W 080°53'5 9.7
2018-Aug-10 19:00N 32°01' W 080°47'5 9.8
2018-Aug-10 18:30N 32°03' W 080°42'60 8.7
2018-Aug-10 11:37N 32°46' W 079°52'1 9.2
2018-Aug-10 11:30N 32°46' W 079°53'4 7.8
2018-Aug-10 11:00N 32°50' W 079°56'2 3.8
2018-Aug-10 10:30N 32°51' W 079°57'1 2.7
2018-Aug-10 10:00N 32°50' W 079°56'1 2.5
2018-Aug-10 09:28N 32°49' W 079°55'2 3.8
2018-Aug-10 09:00N 32°47' W 079°55'2 3.2
2018-Aug-10 08:31N 32°46' W 079°55'1 2.3
2018-Aug-10 08:00N 32°46' W 079°57'1 2.5
2018-Aug-10 07:31N 32°46' W 079°58'1 2.1
2018-Aug-10 07:01N 32°46' W 079°59'2 3.2
2018-Aug-10 06:30N 32°46' W 080°01'0 0.3
2018-Aug-10 06:00N 32°46' W 080°01'0 0.0
2018-Aug-10 05:30N 32°46' W 080°01'0 0.0
2018-Aug-10 05:00N 32°46' W 080°01'49 1.7
2018-Aug-08 23:28N 32°14' W 080°45'2 3.5
2018-Aug-08 23:00N 32°14' W 080°47'2 3.7
2018-Aug-08 22:28N 32°11' W 080°47'2 5.0
2018-Aug-08 21:59N 32°09' W 080°49'2 3.1
2018-Aug-08 21:26N 32°09' W 080°50'1 2.2
2018-Aug-08 21:00N 32°09' W 080°52'1 2.4
2018-Aug-08 20:30N 32°08' W 080°53'1 1.5
2018-Aug-08 20:00N 32°08' W 080°53'1 2.7
2018-Aug-08 19:30N 32°06' W 080°54'2 3.8
2018-Aug-08 19:00N 32°05' W 080°55'1 1.6
2018-Aug-08 18:30N 32°05' W 080°56'2 3.1
2018-Aug-08 18:00N 32°04' W 080°58'1 1.5
2018-Aug-08 17:30N 32°04' W 080°59'1 1.3
2018-Aug-08 17:00N 32°04' W 080°59'0 0.0
2018-Aug-08 16:30N 32°04' W 080°59'0 0.0
2018-Aug-08 16:00N 32°04' W 080°59'0 0.0
2018-Aug-08 15:29N 32°04' W 080°59'0 0.0
2018-Aug-08 15:00N 32°04' W 080°59'0 0.0
2018-Aug-08 14:30N 32°04' W 080°59'0 0.4
2018-Aug-08 14:00N 32°04' W 080°59'1 2.3
2018-Aug-08 13:30N 32°04' W 081°01'1 2.6
2018-Aug-08 13:00N 32°04' W 081°02'1 2.3
2018-Aug-08 12:30N 32°03' W 081°02'1 2.2
2018-Aug-08 12:00N 32°02' W 081°03'1 2.2
2018-Aug-08 11:30N 32°01' W 081°02'1 1.8
2018-Aug-08 11:00N 32°01' W 081°01'2 3.5
2018-Aug-08 10:30N 31°59' W 081°02'1 2.3
2018-Aug-08 10:00N 31°59' W 081°03'0 0.9
2018-Aug-08 09:30N 31°58' W 081°03'1 2.4
2018-Aug-08 08:59N 31°57' W 081°04'1 2.5
2018-Aug-08 08:30N 31°56' W 081°04'1 2.4
2018-Aug-08 07:59N 31°55' W 081°06'2 3.4
2018-Aug-08 07:29N 31°54' W 081°06'2 3.5
2018-Aug-08 06:56N 31°52' W 081°05'1 2.3
2018-Aug-08 06:30N 31°51' W 081°05'1 1.8
2018-Aug-08 06:00N 31°52' W 081°06'0 0.4
2018-Aug-08 05:29N 31°52' W 081°07'1 1.5
2018-Aug-08 05:00N 31°51' W 081°06'0 0.9
2018-Aug-08 04:30N 31°51' W 081°05'0 0.4
2018-Aug-08 04:00N 31°51' W 081°06'1 2.2
2018-Aug-08 03:27N 31°52' W 081°07'2 3.5
2018-Aug-08 03:00N 31°51' W 081°09'3 1.7
2018-Aug-08 01:24N 31°49' W 081°11'1 1.7
2018-Aug-08 00:36N 31°47' W 081°11'0 2.2
2018-Aug-08 00:23N 31°47' W 081°10'1 1.6
2018-Aug-07 23:59N 31°47' W 081°10'  
Track history (hours):
 
Tides and Currents Weather Stations Pressure Air Temp Water Temp Dewpoint Dewpoint Depression Visibility Wind Speed Wind Dir Waves Ship Positions

Mary Bennett

Owner: Savannah Marine Services, Savannah, GA. More information available from US FCC via Universal Licensing System and Coast Guard Vessel Documentation Center.

Last reported at 2018-Aug-15 18:18 UTC. Time now 2018-Aug-21 04:19 UTC.
Position N 32°05' W 081°06'.

Length 21 m; draft 2.3 m.

Type: Tug. MMSI: 367027140.

Date/timePositionNaut miles runAvg speedWind from/ knotsBaromVisibWave heightAir tempDewpointWater temp
2018-Aug-15 18:18N 32°05' W 081°06'1 2.8
2018-Aug-15 18:00N 32°05' W 081°05'3 6.6
2018-Aug-15 17:30N 32°06' W 081°01'1 2.1
2018-Aug-15 17:00N 32°06' W 080°60'3 5.4
2018-Aug-15 16:30N 32°05' W 081°03'3 6.3
2018-Aug-15 16:00N 32°06' W 081°06'0 0.3
2018-Aug-15 15:30N 32°06' W 081°07'0 0.0
2018-Aug-15 15:00N 32°06' W 081°07'0 0.0
2018-Aug-15 14:30N 32°06' W 081°07'0 0.0
2018-Aug-15 14:00N 32°06' W 081°07'1 1.1
2018-Aug-15 13:31N 32°05' W 081°06'4 8.2
2018-Aug-15 12:58N 32°06' W 081°01'  
2018-Aug-10 21:08N 32°05' W 081°06'0 0.0
2018-Aug-10 21:00N 32°05' W 081°06'2 3.9
2018-Aug-10 20:30N 32°05' W 081°03'4 9.0
2018-Aug-10 20:00N 32°04' W 080°58'510.5
2018-Aug-10 19:30N 32°02' W 080°53'5 9.7
2018-Aug-10 19:00N 32°01' W 080°47'5 9.8
2018-Aug-10 18:30N 32°03' W 080°42'60 8.7
2018-Aug-10 11:37N 32°46' W 079°52'1 9.2
2018-Aug-10 11:30N 32°46' W 079°53'4 7.8
2018-Aug-10 11:00N 32°50' W 079°56'2 3.8
2018-Aug-10 10:30N 32°51' W 079°57'1 2.7
2018-Aug-10 10:00N 32°50' W 079°56'1 2.5
2018-Aug-10 09:28N 32°49' W 079°55'2 3.8
2018-Aug-10 09:00N 32°47' W 079°55'2 3.2
2018-Aug-10 08:31N 32°46' W 079°55'1 2.3
2018-Aug-10 08:00N 32°46' W 079°57'1 2.5
2018-Aug-10 07:31N 32°46' W 079°58'1 2.1
2018-Aug-10 07:01N 32°46' W 079°59'2 3.2
2018-Aug-10 06:30N 32°46' W 080°01'0 0.3
2018-Aug-10 06:00N 32°46' W 080°01'0 0.0
2018-Aug-10 05:30N 32°46' W 080°01'0 0.0
2018-Aug-10 05:00N 32°46' W 080°01'49 1.7
2018-Aug-08 23:28N 32°14' W 080°45'2 3.5
2018-Aug-08 23:00N 32°14' W 080°47'2 3.7
2018-Aug-08 22:28N 32°11' W 080°47'2 5.0
2018-Aug-08 21:59N 32°09' W 080°49'2 3.1
2018-Aug-08 21:26N 32°09' W 080°50'1 2.2
2018-Aug-08 21:00N 32°09' W 080°52'1 2.4
2018-Aug-08 20:30N 32°08' W 080°53'1 1.5
2018-Aug-08 20:00N 32°08' W 080°53'1 2.7
2018-Aug-08 19:30N 32°06' W 080°54'2 3.8
2018-Aug-08 19:00N 32°05' W 080°55'1 1.6
2018-Aug-08 18:30N 32°05' W 080°56'2 3.1
2018-Aug-08 18:00N 32°04' W 080°58'1 1.5
2018-Aug-08 17:30N 32°04' W 080°59'1 1.3
2018-Aug-08 17:00N 32°04' W 080°59'0 0.0
2018-Aug-08 16:30N 32°04' W 080°59'0 0.0
2018-Aug-08 16:00N 32°04' W 080°59'0 0.0
2018-Aug-08 15:29N 32°04' W 080°59'0 0.0
2018-Aug-08 15:00N 32°04' W 080°59'0 0.0
2018-Aug-08 14:30N 32°04' W 080°59'0 0.4
2018-Aug-08 14:00N 32°04' W 080°59'1 2.3
2018-Aug-08 13:30N 32°04' W 081°01'1 2.6
2018-Aug-08 13:00N 32°04' W 081°02'1 2.3
2018-Aug-08 12:30N 32°03' W 081°02'1 2.2
2018-Aug-08 12:00N 32°02' W 081°03'1 2.2
2018-Aug-08 11:30N 32°01' W 081°02'1 1.8
2018-Aug-08 11:00N 32°01' W 081°01'2 3.5
2018-Aug-08 10:30N 31°59' W 081°02'1 2.3
2018-Aug-08 10:00N 31°59' W 081°03'0 0.9
2018-Aug-08 09:30N 31°58' W 081°03'1 2.4
2018-Aug-08 08:59N 31°57' W 081°04'1 2.5
2018-Aug-08 08:30N 31°56' W 081°04'1 2.4
2018-Aug-08 07:59N 31°55' W 081°06'2 3.4
2018-Aug-08 07:29N 31°54' W 081°06'2 3.5
2018-Aug-08 06:56N 31°52' W 081°05'1 2.3
2018-Aug-08 06:30N 31°51' W 081°05'1 1.8
2018-Aug-08 06:00N 31°52' W 081°06'0 0.4
2018-Aug-08 05:29N 31°52' W 081°07'1 1.5
2018-Aug-08 05:00N 31°51' W 081°06'0 0.9
2018-Aug-08 04:30N 31°51' W 081°05'0 0.4
2018-Aug-08 04:00N 31°51' W 081°06'1 2.2
2018-Aug-08 03:27N 31°52' W 081°07'2 3.5
2018-Aug-08 03:00N 31°51' W 081°09'3 1.7
2018-Aug-08 01:24N 31°49' W 081°11'1 1.7
2018-Aug-08 00:36N 31°47' W 081°11'0 2.2
2018-Aug-08 00:23N 31°47' W 081°10'1 1.6
2018-Aug-07 23:59N 31°47' W 081°10'  

Dump ship's entire track history